createdAt,value
2022-11-12T00:00:55.910Z,103236.84
2022-11-12T00:03:33.235Z,103236.19
2022-11-12T00:06:01.866Z,103246.97
2022-11-12T00:08:28.843Z,103250.84
2022-11-12T00:10:57.551Z,103235.69
2022-11-12T00:13:25.096Z,103237.88
2022-11-12T00:16:01.415Z,103233.72
2022-11-12T00:18:28.216Z,103230.53
2022-11-12T00:21:02.960Z,103230.88
2022-11-12T00:23:37.278Z,103237.47
2022-11-12T00:26:04.827Z,103245.75
2022-11-12T00:28:37.543Z,103245.06
2022-11-12T00:31:12.469Z,103233.66
2022-11-12T00:33:40.938Z,103238.00
2022-11-12T00:36:07.887Z,103242.38
2022-11-12T00:38:36.616Z,103237.34
2022-11-12T00:41:09.952Z,103239.38
2022-11-12T00:43:36.399Z,103248.47
2022-11-12T00:46:03.035Z,103251.34
2022-11-12T00:48:29.508Z,103243.44
2022-11-12T00:51:03.662Z,103242.78
2022-11-12T00:53:30.001Z,103242.13
2022-11-12T00:56:10.531Z,103252.91
2022-11-12T00:58:36.881Z,103248.53
2022-11-12T01:01:12.285Z,103252.38
2022-11-12T01:03:40.373Z,103247.34
2022-11-12T01:06:15.574Z,103245.88
2022-11-12T01:08:42.929Z,103240.84
2022-11-12T01:11:15.341Z,103241.84
2022-11-12T01:13:45.040Z,103237.28
2022-11-12T01:16:20.395Z,103228.56
2022-11-12T01:18:52.052Z,103224.84
2022-11-12T01:21:18.499Z,103233.13
2022-11-12T01:23:44.859Z,103232.81
2022-11-12T01:26:15.044Z,103238.53
2022-11-12T01:28:43.487Z,103236.00
2022-11-12T01:31:20.092Z,103232.50
2022-11-12T01:33:48.464Z,103244.59
2022-11-12T01:36:16.637Z,103232.97
2022-11-12T01:38:48.415Z,103237.00
2022-11-12T01:41:19.675Z,103242.41
2022-11-12T01:43:46.330Z,103234.16
2022-11-12T01:46:27.418Z,103234.63
2022-11-12T01:49:00.992Z,103229.09
2022-11-12T01:51:37.523Z,103232.59
2022-11-12T01:54:07.162Z,103234.47
2022-11-12T01:56:37.334Z,103225.56
2022-11-12T01:59:23.231Z,103226.41
2022-11-12T02:01:50.689Z,103227.22
2022-11-12T02:04:20.807Z,103229.75
2022-11-12T02:06:57.073Z,103233.13
2022-11-12T02:09:25.241Z,103239.16
2022-11-12T02:12:00.249Z,103229.41
2022-11-12T02:14:27.004Z,103223.84
2022-11-12T02:16:53.817Z,103216.63
2022-11-12T02:19:22.257Z,103218.44
2022-11-12T02:21:49.715Z,103220.47
2022-11-12T02:24:15.988Z,103216.31
2022-11-12T02:26:52.812Z,103217.31
2022-11-12T02:29:22.443Z,103214.97
2022-11-12T02:31:50.856Z,103210.97
2022-11-12T02:34:19.304Z,103212.63
2022-11-12T02:36:46.739Z,103213.16
2022-11-12T02:39:14.180Z,103212.69
2022-11-12T02:41:48.732Z,103206.28
2022-11-12T02:44:15.091Z,103207.16
2022-11-12T02:46:42.473Z,103201.94
2022-11-12T02:49:13.259Z,103199.25
2022-11-12T02:51:39.628Z,103198.59
2022-11-12T02:54:06.977Z,103199.59
2022-11-12T02:56:40.476Z,103211.88
2022-11-12T02:59:14.037Z,103203.31
2022-11-12T03:01:53.505Z,103209.69
2022-11-12T03:04:21.940Z,103210.25
2022-11-12T03:06:53.470Z,103211.41
2022-11-12T03:09:27.327Z,103209.41
2022-11-12T03:12:14.218Z,103205.38
2022-11-12T03:14:40.975Z,103206.22
2022-11-12T03:17:10.430Z,103197.84
2022-11-12T03:19:38.877Z,103208.06
2022-11-12T03:22:10.218Z,103206.41
2022-11-12T03:24:47.850Z,103201.03
2022-11-12T03:27:29.566Z,103196.31
2022-11-12T03:29:57.952Z,103201.88
2022-11-12T03:32:28.462Z,103206.41
2022-11-12T03:35:13.412Z,103203.56
2022-11-12T03:37:39.764Z,103197.31
2022-11-12T03:40:08.810Z,103204.56
2022-11-12T03:42:35.172Z,103198.19
2022-11-12T03:45:01.583Z,103202.69
2022-11-12T03:47:32.046Z,103199.34
2022-11-12T03:49:58.511Z,103202.22
2022-11-12T03:52:51.493Z,103201.56
2022-11-12T03:55:19.606Z,103203.75
2022-11-12T03:57:48.597Z,103203.09
2022-11-12T04:00:34.233Z,103197.22
2022-11-12T04:03:06.666Z,103197.41
2022-11-12T04:06:05.959Z,103210.88
2022-11-12T04:08:38.442Z,103208.81
2022-11-12T04:11:14.327Z,103198.44
2022-11-12T04:13:47.572Z,103205.50
2022-11-12T04:16:41.298Z,103210.88
2022-11-12T04:19:29.939Z,103219.75
2022-11-12T04:22:04.916Z,103211.03
2022-11-12T04:24:54.408Z,103204.81
2022-11-12T04:27:34.735Z,103204.16
2022-11-12T04:30:16.865Z,103216.41
2022-11-12T04:32:54.747Z,103220.28
2022-11-12T04:35:23.690Z,103214.72
2022-11-12T04:37:52.196Z,103207.50
2022-11-12T04:40:41.581Z,103207.16
2022-11-12T04:43:36.187Z,103212.53
2022-11-12T04:46:05.274Z,103207.16
2022-11-12T04:48:36.743Z,103202.63
2022-11-12T04:51:25.065Z,103201.59
2022-11-12T04:54:27.897Z,103201.41
2022-11-12T04:56:58.458Z,103201.78
2022-11-12T04:59:32.843Z,103200.44
2022-11-12T05:02:02.510Z,103201.63
2022-11-12T05:04:29.247Z,103198.09
2022-11-12T05:06:56.974Z,103191.06
2022-11-12T05:09:29.069Z,103187.84
2022-11-12T05:12:00.907Z,103187.38
2022-11-12T05:14:33.667Z,103184.00
2022-11-12T05:17:00.195Z,103182.16
2022-11-12T05:19:26.665Z,103189.38
2022-11-12T05:22:06.259Z,103182.69
2022-11-12T05:24:42.887Z,103170.25
2022-11-12T05:27:32.563Z,103174.28
2022-11-12T05:30:04.300Z,103170.94
2022-11-12T05:32:31.744Z,103180.34
2022-11-12T05:34:58.196Z,103169.94
2022-11-12T05:37:30.432Z,103168.25
2022-11-12T05:39:56.929Z,103168.59
2022-11-12T05:42:35.536Z,103175.13
2022-11-12T05:45:04.364Z,103172.44
2022-11-12T05:47:37.977Z,103168.25
2022-11-12T05:50:04.780Z,103178.34
2022-11-12T05:52:35.520Z,103173.78
2022-11-12T05:55:07.340Z,103176.31
2022-11-12T05:57:33.807Z,103175.66
2022-11-12T06:00:07.321Z,103184.53
2022-11-12T06:02:34.810Z,103174.66
2022-11-12T06:05:01.368Z,103182.03
2022-11-12T06:07:29.895Z,103174.31
2022-11-12T06:09:56.290Z,103177.34
2022-11-12T06:12:24.875Z,103180.34
2022-11-12T06:15:02.741Z,103188.59
2022-11-12T06:17:43.551Z,103185.06
2022-11-12T06:20:10.977Z,103183.22
2022-11-12T06:22:56.704Z,103178.00
2022-11-12T06:25:35.627Z,103179.19
2022-11-12T06:28:11.234Z,103183.72
2022-11-12T06:30:42.748Z,103179.19
2022-11-12T06:33:12.351Z,103184.38
2022-11-12T06:36:05.447Z,103190.75
2022-11-12T06:39:01.233Z,103194.97
2022-11-12T06:41:37.926Z,103187.75
2022-11-12T06:44:09.465Z,103186.75
2022-11-12T06:46:37.919Z,103183.03
2022-11-12T06:49:07.654Z,103185.91
2022-11-12T06:51:34.480Z,103191.28
2022-11-12T06:54:05.411Z,103197.47
2022-11-12T06:56:37.172Z,103193.13
2022-11-12T06:59:04.621Z,103191.28
2022-11-12T07:01:37.493Z,103200.84
2022-11-12T07:04:04.172Z,103200.84
2022-11-12T07:06:37.846Z,103205.38
2022-11-12T07:09:05.489Z,103199.84
2022-11-12T07:11:32.031Z,103206.06
2022-11-12T07:14:05.949Z,103209.06
2022-11-12T07:16:39.512Z,103206.53
2022-11-12T07:19:08.960Z,103211.09
2022-11-12T07:21:37.439Z,103221.84
2022-11-12T07:24:04.992Z,103226.34
2022-11-12T07:26:31.515Z,103227.22
2022-11-12T07:28:59.019Z,103230.72
2022-11-12T07:31:25.971Z,103233.41
2022-11-12T07:33:52.494Z,103229.56
2022-11-12T07:36:20.799Z,103233.25
2022-11-12T07:38:52.631Z,103232.25
2022-11-12T07:41:35.179Z,103228.56
2022-11-12T07:44:01.668Z,103232.72
2022-11-12T07:46:29.284Z,103223.66
2022-11-12T07:49:00.064Z,103218.63
2022-11-12T07:51:43.665Z,103220.97
2022-11-12T07:54:10.236Z,103226.03
2022-11-12T07:56:51.008Z,103226.69
2022-11-12T07:59:23.620Z,103222.81
2022-11-12T08:02:00.324Z,103234.75
2022-11-12T08:05:13.740Z,103233.41
2022-11-12T08:07:51.118Z,103240.94
2022-11-12T08:10:22.775Z,103238.78
2022-11-12T08:12:56.148Z,103240.28
2022-11-12T08:16:07.429Z,103242.13
2022-11-12T08:19:12.266Z,103244.28
2022-11-12T08:21:38.666Z,103244.44
2022-11-12T08:24:21.430Z,103242.75
2022-11-12T08:26:47.870Z,103238.53
2022-11-12T08:29:23.339Z,103240.34
2022-11-12T08:32:19.720Z,103246.38
2022-11-12T08:34:46.221Z,103246.66
2022-11-12T08:37:13.477Z,103247.78
2022-11-12T08:39:59.275Z,103242.84
2022-11-12T08:42:27.878Z,103248.13
2022-11-12T08:45:01.546Z,103242.50
2022-11-12T08:47:29.963Z,103246.13
2022-11-12T08:50:01.481Z,103236.13
2022-11-12T08:52:34.022Z,103234.16
2022-11-12T08:55:00.355Z,103241.78
2022-11-12T08:57:51.561Z,103233.19
2022-11-12T09:00:28.903Z,103236.53
2022-11-12T09:02:55.346Z,103238.19
2022-11-12T09:05:21.848Z,103241.56
2022-11-12T09:07:50.269Z,103241.19
2022-11-12T09:10:27.875Z,103237.47
2022-11-12T09:12:58.260Z,103242.13
2022-11-12T09:15:37.448Z,103233.84
2022-11-12T09:18:07.255Z,103239.72
2022-11-12T09:20:35.711Z,103229.41
2022-11-12T09:23:08.042Z,103237.25
2022-11-12T09:25:36.499Z,103236.13
2022-11-12T09:28:23.839Z,103238.06
2022-11-12T09:31:07.232Z,103241.03
2022-11-12T09:33:34.099Z,103247.75
2022-11-12T09:36:40.040Z,103245.31
2022-11-12T09:39:12.269Z,103238.44
2022-11-12T09:41:40.704Z,103239.38
2022-11-12T09:44:11.548Z,103239.47
2022-11-12T09:47:08.040Z,103236.66
2022-11-12T09:50:12.886Z,103230.94
2022-11-12T09:52:43.334Z,103244.34
2022-11-12T09:55:41.930Z,103245.25
2022-11-12T09:58:12.871Z,103248.59
2022-11-12T10:01:00.115Z,103244.88
2022-11-12T10:03:49.568Z,103247.84
2022-11-12T10:06:23.946Z,103248.94
2022-11-12T10:08:57.409Z,103252.75
2022-11-12T10:11:52.488Z,103250.31
2022-11-12T10:14:43.567Z,103247.84
2022-11-12T10:17:19.649Z,103246.69
2022-11-12T10:19:55.294Z,103242.19
2022-11-12T10:22:49.228Z,103241.25
2022-11-12T10:25:19.567Z,103238.00
2022-11-12T10:27:49.243Z,103244.31
2022-11-12T10:30:21.867Z,103233.94
2022-11-12T10:32:50.343Z,103245.66
2022-11-12T10:35:20.955Z,103236.78
2022-11-12T10:38:02.411Z,103241.81
2022-11-12T10:40:40.650Z,103236.72
2022-11-12T10:43:16.194Z,103235.53
2022-11-12T10:45:44.173Z,103230.34
2022-11-12T10:48:33.237Z,103230.59
2022-11-12T10:51:37.334Z,103223.72
2022-11-12T10:54:29.411Z,103226.47
2022-11-12T10:57:32.412Z,103218.38
2022-11-12T11:00:14.186Z,103221.94
2022-11-12T11:02:55.840Z,103218.22
2022-11-12T11:05:51.125Z,103208.88
2022-11-12T11:08:35.908Z,103220.75
2022-11-12T11:11:21.779Z,103207.44
2022-11-12T11:13:57.072Z,103201.63
2022-11-12T11:16:50.219Z,103202.47
2022-11-12T11:19:17.871Z,103202.06
2022-11-12T11:21:51.083Z,103203.31
2022-11-12T11:24:51.747Z,103203.34
2022-11-12T11:27:40.027Z,103201.69
2022-11-12T11:30:15.397Z,103191.06
2022-11-12T11:33:17.843Z,103197.53
2022-11-12T11:35:56.288Z,103188.81
2022-11-12T11:38:39.115Z,103188.78
2022-11-12T11:41:21.684Z,103180.06
2022-11-12T11:44:00.633Z,103176.94
2022-11-12T11:46:53.213Z,103176.72
2022-11-12T11:49:38.198Z,103176.31
2022-11-12T11:52:40.062Z,103182.97
2022-11-12T11:55:20.652Z,103174.63
2022-11-12T11:58:09.518Z,103176.28
2022-11-12T12:01:32.264Z,103181.91
2022-11-12T12:04:23.262Z,103176.69
2022-11-12T12:07:16.822Z,103169.19
2022-11-12T12:10:04.815Z,103174.19
2022-11-12T12:12:46.145Z,103167.56
2022-11-12T12:15:43.097Z,103166.28
2022-11-12T12:18:43.679Z,103162.09
2022-11-12T12:21:16.819Z,103154.59
2022-11-12T12:23:48.318Z,103153.34
2022-11-12T12:26:22.915Z,103143.31
2022-11-12T12:29:14.618Z,103142.88
2022-11-12T12:31:48.305Z,103134.13
2022-11-12T12:34:23.168Z,103140.78
2022-11-12T12:36:57.452Z,103127.81
2022-11-12T12:39:41.282Z,103139.09
2022-11-12T12:42:18.395Z,103128.88
2022-11-12T12:45:00.810Z,103123.63
2022-11-12T12:47:43.265Z,103116.09
2022-11-12T12:50:15.662Z,103123.19
2022-11-12T12:53:03.706Z,103116.91
2022-11-12T12:55:50.317Z,103106.84
2022-11-12T12:58:52.197Z,103099.25
2022-11-12T13:01:31.366Z,103101.53
2022-11-12T13:04:03.284Z,103088.41
2022-11-12T13:06:41.048Z,103084.63
2022-11-12T13:09:24.302Z,103081.31
2022-11-12T13:12:04.254Z,103082.97
2022-11-12T13:14:36.763Z,103077.31
2022-11-12T13:17:07.386Z,103078.75
2022-11-12T13:19:37.742Z,103078.75
2022-11-12T13:22:19.319Z,103076.63
2022-11-12T13:25:19.161Z,103074.53
2022-11-12T13:27:45.503Z,103077.06
2022-11-12T13:30:16.244Z,103073.22
2022-11-12T13:32:48.866Z,103080.50
2022-11-12T13:35:37.246Z,103067.78
2022-11-12T13:38:11.986Z,103069.44
2022-11-12T13:40:47.167Z,103074.63
2022-11-12T13:44:05.272Z,103071.72
2022-11-12T13:46:35.894Z,103061.03
2022-11-12T13:49:09.179Z,103064.38
2022-11-12T13:51:51.945Z,103061.47
2022-11-12T13:54:43.392Z,103065.78
2022-11-12T13:57:27.983Z,103064.34
2022-11-12T14:00:16.950Z,103059.72
2022-11-12T14:03:07.266Z,103056.13
2022-11-12T14:06:15.478Z,103052.53
2022-11-12T14:09:29.778Z,103056.72
2022-11-12T14:12:35.959Z,103059.19
2022-11-12T14:15:30.606Z,103053.59
2022-11-12T14:18:13.954Z,103047.97
2022-11-12T14:20:41.580Z,103035.44
2022-11-12T14:23:23.121Z,103039.22
2022-11-12T14:25:56.243Z,103036.50
2022-11-12T14:28:35.630Z,103040.25
2022-11-12T14:31:04.026Z,103036.13
2022-11-12T14:33:37.622Z,103033.00
2022-11-12T14:36:24.052Z,103023.41
2022-11-12T14:39:11.363Z,103020.28
2022-11-12T14:42:02.776Z,103019.69
2022-11-12T14:44:39.292Z,103019.31
2022-11-12T14:47:05.822Z,103017.66
2022-11-12T14:49:45.369Z,103013.47
2022-11-12T14:52:20.898Z,103013.09
2022-11-12T14:54:51.415Z,103015.19
2022-11-12T14:57:25.926Z,103010.41
2022-11-12T14:59:53.834Z,103015.22
2022-11-12T15:02:47.200Z,103026.09
2022-11-12T15:05:20.634Z,103008.13
2022-11-12T15:07:59.326Z,103017.34
2022-11-12T15:10:34.784Z,103014.22
2022-11-12T15:13:19.218Z,103020.34
2022-11-12T15:15:56.523Z,103017.44
2022-11-12T15:18:26.991Z,103014.38
2022-11-12T15:21:05.763Z,103014.63
2022-11-12T15:23:32.307Z,103013.81
2022-11-12T15:26:00.440Z,103011.34
2022-11-12T15:28:26.972Z,103009.50
2022-11-12T15:31:01.528Z,103001.19
2022-11-12T15:33:28.249Z,103002.66
2022-11-12T15:36:00.305Z,103002.03
2022-11-12T15:38:35.783Z,103004.13
2022-11-12T15:41:02.819Z,103010.59
2022-11-12T15:43:32.569Z,103006.84
2022-11-12T15:45:59.324Z,103003.13
2022-11-12T15:48:25.669Z,103009.56
2022-11-12T15:50:52.121Z,103008.53
2022-11-12T15:53:18.751Z,103013.16
2022-11-12T15:55:45.635Z,103005.66
2022-11-12T15:58:18.338Z,103007.34
2022-11-12T16:00:45.215Z,103005.47
2022-11-12T16:03:13.751Z,103001.53
2022-11-12T16:05:40.116Z,102989.03
2022-11-12T16:08:06.471Z,102994.06
2022-11-12T16:10:33.175Z,102989.06
2022-11-12T16:13:01.147Z,102990.09
2022-11-12T16:15:27.705Z,102992.41
2022-11-12T16:17:56.357Z,102990.34
2022-11-12T16:20:29.164Z,102993.03
2022-11-12T16:22:55.807Z,102997.41
2022-11-12T16:25:27.859Z,102996.38
2022-11-12T16:27:57.668Z,102990.75
2022-11-12T16:30:32.582Z,102995.13
2022-11-12T16:33:00.393Z,102995.75
2022-11-12T16:35:29.733Z,102999.94
2022-11-12T16:37:56.341Z,103004.31
2022-11-12T16:40:28.297Z,103004.72
2022-11-12T16:42:54.680Z,103011.63
2022-11-12T16:45:23.444Z,103008.47
2022-11-12T16:47:55.444Z,103000.16
2022-11-12T16:50:26.707Z,103002.44
2022-11-12T16:52:53.814Z,103008.28
2022-11-12T16:55:21.606Z,103001.19
2022-11-12T16:57:47.987Z,103005.34
2022-11-12T17:00:17.116Z,103007.41
2022-11-12T17:02:52.087Z,102999.72
2022-11-12T17:05:21.830Z,102998.47
2022-11-12T17:07:49.268Z,103007.00
2022-11-12T17:10:16.833Z,102999.91
2022-11-12T17:12:43.351Z,103002.00
2022-11-12T17:15:10.225Z,102995.31
2022-11-12T17:17:36.630Z,103001.78
2022-11-12T17:20:03.681Z,103004.06
2022-11-12T17:22:31.145Z,103004.47
2022-11-12T17:24:57.514Z,103008.84
2022-11-12T17:27:23.882Z,103004.88
2022-11-12T17:29:50.384Z,103006.09
2022-11-12T17:32:16.728Z,103000.28
2022-11-12T17:34:44.326Z,103001.50
2022-11-12T17:37:10.709Z,103004.63
2022-11-12T17:39:37.129Z,103001.50
2022-11-12T17:42:03.752Z,103003.56
2022-11-12T17:44:30.110Z,102996.91
2022-11-12T17:46:56.611Z,102989.19
2022-11-12T17:49:22.934Z,102991.47
2022-11-12T17:51:49.331Z,102986.25
2022-11-12T17:54:15.688Z,102995.59
2022-11-12T17:56:42.033Z,102994.16
2022-11-12T17:59:08.839Z,102993.50
2022-11-12T18:01:35.324Z,102994.53
2022-11-12T18:04:01.935Z,102993.06
2022-11-12T18:06:30.631Z,102988.06
2022-11-12T18:08:59.201Z,102998.44
2022-11-12T18:11:27.447Z,103001.75
2022-11-12T18:13:54.784Z,103000.91
2022-11-12T18:16:23.891Z,103002.97
2022-11-12T18:18:50.431Z,103000.50
2022-11-12T18:21:17.580Z,103001.69
2022-11-12T18:23:44.874Z,103004.63
2022-11-12T18:26:18.128Z,103000.44
2022-11-12T18:28:45.197Z,102997.94
2022-11-12T18:31:12.835Z,102996.47
2022-11-12T18:33:46.116Z,102994.16
2022-11-12T18:36:18.108Z,102997.25
2022-11-12T18:38:46.754Z,102992.88
2022-11-12T18:41:15.395Z,102994.97
2022-11-12T18:43:41.816Z,102995.34
2022-11-12T18:46:10.477Z,102993.69
2022-11-12T18:48:38.450Z,103004.06
2022-11-12T18:51:08.927Z,103014.66
2022-11-12T18:53:36.348Z,102998.22
2022-11-12T18:56:14.262Z,103005.69
2022-11-12T18:58:40.713Z,103006.75
2022-11-12T19:01:12.645Z,103002.38
2022-11-12T19:03:39.128Z,102997.38
2022-11-12T19:06:07.406Z,102995.25
2022-11-12T19:08:34.211Z,102989.03
2022-11-12T19:11:02.853Z,102996.50
2022-11-12T19:13:31.077Z,102993.16
2022-11-12T19:16:06.857Z,102986.47
2022-11-12T19:18:33.861Z,102989.34
2022-11-12T19:21:04.772Z,102992.66
2022-11-12T19:23:32.616Z,102994.72
2022-11-12T19:26:08.480Z,103001.16
2022-11-12T19:28:35.004Z,103005.06
2022-11-12T19:31:10.595Z,103004.25
2022-11-12T19:33:36.967Z,103000.91
2022-11-12T19:36:08.401Z,102992.97
2022-11-12T19:38:34.866Z,102989.47
2022-11-12T19:41:13.367Z,102987.16
2022-11-12T19:43:43.051Z,102987.53
2022-11-12T19:46:10.370Z,102997.72
2022-11-12T19:48:38.879Z,102989.78
2022-11-12T19:51:07.915Z,102991.84
2022-11-12T19:53:36.340Z,102994.13
2022-11-12T19:56:12.405Z,102981.22
2022-11-12T19:58:38.981Z,102987.00
2022-11-12T20:01:10.744Z,102986.16
2022-11-12T20:03:38.042Z,102982.81
2022-11-12T20:06:08.854Z,102981.16
2022-11-12T20:08:35.588Z,102977.41
2022-11-12T20:11:04.148Z,102973.25
2022-11-12T20:13:30.540Z,102970.72
2022-11-12T20:16:00.080Z,102971.13
2022-11-12T20:18:27.176Z,102963.25
2022-11-12T20:20:56.126Z,102970.69
2022-11-12T20:23:25.240Z,102965.69
2022-11-12T20:25:52.788Z,102961.31
2022-11-12T20:28:19.775Z,102964.41
2022-11-12T20:30:46.255Z,102968.50
2022-11-12T20:33:15.713Z,102964.31
2022-11-12T20:35:42.132Z,102967.03
2022-11-12T20:38:08.593Z,102959.94
2022-11-12T20:40:36.007Z,102951.22
2022-11-12T20:43:02.393Z,102944.16
2022-11-12T20:45:30.832Z,102941.66
2022-11-12T20:47:57.193Z,102938.13
2022-11-12T20:50:24.067Z,102948.91
2022-11-12T20:52:52.523Z,102948.66
2022-11-12T20:55:18.865Z,102945.50
2022-11-12T20:57:47.330Z,102937.38
2022-11-12T21:00:17.739Z,102940.06
2022-11-12T21:02:46.416Z,102943.78
2022-11-12T21:05:12.903Z,102937.53
2022-11-12T21:07:39.323Z,102947.53
2022-11-12T21:10:06.384Z,102944.19
2022-11-12T21:12:33.100Z,102940.00
2022-11-12T21:15:01.655Z,102941.00
2022-11-12T21:17:28.017Z,102933.78
2022-11-12T21:19:54.368Z,102942.03
2022-11-12T21:22:20.737Z,102938.53
2022-11-12T21:24:51.375Z,102935.81
2022-11-12T21:27:17.848Z,102932.47
2022-11-12T21:29:44.188Z,102934.16
2022-11-12T21:32:11.621Z,102926.44
2022-11-12T21:34:38.158Z,102933.69
2022-11-12T21:37:05.576Z,102924.78
2022-11-12T21:39:33.050Z,102914.16
2022-11-12T21:42:00.505Z,102918.75
2022-11-12T21:44:26.859Z,102919.78
2022-11-12T21:46:54.244Z,102912.72
2022-11-12T21:49:20.618Z,102917.25
2022-11-12T21:51:47.010Z,102920.31
2022-11-12T21:54:14.224Z,102930.28
2022-11-12T21:56:45.076Z,102926.75
2022-11-12T21:59:11.532Z,102927.59
2022-11-12T22:01:37.880Z,102933.00
2022-11-12T22:04:07.044Z,102924.44
2022-11-12T22:06:36.360Z,102923.63
2022-11-12T22:09:03.114Z,102929.00
2022-11-12T22:11:29.608Z,102927.34
2022-11-12T22:13:55.983Z,102921.94
2022-11-12T22:16:29.311Z,102924.81
2022-11-12T22:18:57.923Z,102922.69
2022-11-12T22:21:38.483Z,102925.56
2022-11-12T22:24:06.764Z,102926.22
2022-11-12T22:26:33.223Z,102920.66
2022-11-12T22:28:59.744Z,102918.97
2022-11-12T22:31:29.782Z,102919.81
2022-11-12T22:33:58.267Z,102910.25
2022-11-12T22:36:27.669Z,102916.84
2022-11-12T22:38:56.543Z,102913.31
2022-11-12T22:41:30.178Z,102911.00
2022-11-12T22:43:59.562Z,102917.59
2022-11-12T22:46:28.542Z,102915.09
2022-11-12T22:48:57.165Z,102908.88
2022-11-12T22:51:26.530Z,102898.94
2022-11-12T22:54:01.058Z,102902.66
2022-11-12T22:56:28.390Z,102900.13
2022-11-12T22:58:57.695Z,102898.66
2022-11-12T23:01:32.152Z,102899.50
2022-11-12T23:04:00.839Z,102899.31
2022-11-12T23:06:28.907Z,102903.84
2022-11-12T23:08:56.526Z,102903.03
2022-11-12T23:11:26.140Z,102899.69
2022-11-12T23:13:54.223Z,102898.66
2022-11-12T23:16:24.083Z,102894.31
2022-11-12T23:18:51.752Z,102890.97
2022-11-12T23:21:20.537Z,102900.94
2022-11-12T23:23:46.905Z,102889.28
2022-11-12T23:26:17.443Z,102894.03
2022-11-12T23:28:43.907Z,102896.09
2022-11-12T23:31:13.954Z,102894.78
2022-11-12T23:33:52.411Z,102894.16
2022-11-12T23:36:21.046Z,102886.06
2022-11-12T23:38:47.585Z,102889.78
2022-11-12T23:41:17.243Z,102899.75
2022-11-12T23:43:43.642Z,102884.59
2022-11-12T23:46:12.699Z,102889.13
2022-11-12T23:48:39.051Z,102892.84
2022-11-12T23:51:17.806Z,102885.81
2022-11-12T23:53:45.437Z,102879.59
2022-11-12T23:56:15.927Z,102877.06
2022-11-12T23:58:42.740Z,102877.44
